Time;durP1;ratioP1;P1;durP2;ratioP2;P2;SDS_P1;SDS_P2;PMS_P1;PMS_P2;Temp;Humidity;BMP_temperature;BMP_pressure;BME280_temperature;BME280_humidity;BME280_pressure;Samples;Min_cycle;Max_cycle;Signal;HPM_P1;HPM_P2
2023/03/03 00:02:21;;;;;;;22.77;16.50;;;;;;;0.71;100.00;99495.53;5037071;28;20245;-81
2023/03/03 00:04:52;;;;;;;21.53;15.70;;;;;;;0.80;100.00;99497.19;5001946;28;21420;-79
2023/03/03 00:07:22;;;;;;;23.93;16.50;;;;;;;0.76;100.00;99498.50;5040601;28;20194;-80
2023/03/03 00:09:53;;;;;;;22.73;16.33;;;;;;;0.72;100.00;99491.91;5026510;28;20207;-79
2023/03/03 00:12:23;;;;;;;25.70;17.07;;;;;;;0.69;100.00;99490.44;5043693;28;20226;-79
2023/03/03 00:14:52;;;;;;;24.23;17.03;;;;;;;0.65;100.00;99488.28;5032535;28;20651;-80
2023/03/03 00:17:30;;;;;;;29.67;20.23;;;;;;;0.51;100.00;99487.06;5033384;28;20198;-81
2023/03/03 00:20:01;;;;;;;27.37;20.43;;;;;;;0.61;100.00;99490.38;5017325;28;20210;-80
2023/03/03 00:22:32;;;;;;;31.37;22.90;;;;;;;0.63;100.00;99493.69;5023737;28;20201;-81
2023/03/03 00:25:20;;;;;;;32.93;23.00;;;;;;;0.57;100.00;99496.13;5030259;28;20185;-80
2023/03/03 00:27:52;;;;;;;28.30;20.03;;;;;;;0.56;100.00;99497.13;5032762;28;20194;-79
2023/03/03 00:30:28;;;;;;;28.17;20.70;;;;;;;0.60;100.00;99504.56;5028649;28;20206;-81
2023/03/03 00:32:55;;;;;;;26.87;18.87;;;;;;;0.63;100.00;99508.69;5034906;28;20209;-78
2023/03/03 00:35:38;;;;;;;28.83;19.03;;;;;;;0.54;100.00;99496.47;5032342;28;20267;-79
2023/03/03 00:38:17;;;;;;;25.57;18.17;;;;;;;0.59;100.00;99495.00;5033752;28;20216;-81
2023/03/03 00:40:54;;;;;;;29.30;18.40;;;;;;;0.58;100.00;99500.44;5034909;28;20260;-80
2023/03/03 00:43:24;;;;;;;26.07;19.03;;;;;;;0.49;100.00;99496.09;5020233;28;20745;-80
2023/03/03 00:45:52;;;;;;;26.13;18.80;;;;;;;0.43;100.00;99487.84;5019345;28;20190;-79
2023/03/03 00:48:28;;;;;;;23.57;18.23;;;;;;;0.46;100.00;99492.00;5039972;28;20548;-79
2023/03/03 00:50:58;;;;;;;25.63;17.73;;;;;;;0.47;100.00;99488.34;5033012;28;20752;-80
2023/03/03 00:53:29;;;;;;;24.97;18.53;;;;;;;0.35;100.00;99487.81;5019254;28;20272;-79
2023/03/03 00:55:57;;;;;;;27.60;18.40;;;;;;;0.38;100.00;99497.19;5032609;28;20194;-82
2023/03/03 00:58:26;;;;;;;23.87;17.67;;;;;;;0.39;100.00;99486.50;5032174;28;20301;-80
2023/03/03 01:01:03;;;;;;;25.27;18.97;;;;;;;0.37;100.00;99482.41;5024482;28;20311;-79
2023/03/03 01:03:41;;;;;;;24.93;17.97;;;;;;;0.39;100.00;99491.78;5017610;28;20222;-81
2023/03/03 01:06:11;;;;;;;24.67;18.37;;;;;;;0.35;100.00;99484.34;5016179;28;20206;-81
2023/03/03 01:08:45;;;;;;;27.60;18.63;;;;;;;0.36;100.00;99467.56;5032860;28;20194;-80
2023/03/03 01:11:21;;;;;;;23.10;18.03;;;;;;;0.34;100.00;99467.72;5031407;28;20229;-80
2023/03/03 01:13:49;;;;;;;24.07;18.10;;;;;;;0.33;100.00;99466.06;5033568;28;20198;-80
2023/03/03 01:16:16;;;;;;;25.97;18.23;;;;;;;0.21;100.00;99462.06;5034821;28;20201;-79
2023/03/03 01:18:45;;;;;;;24.47;17.97;;;;;;;0.26;100.00;99456.31;5032062;28;20248;-80
2023/03/03 01:21:13;;;;;;;24.30;17.73;;;;;;;0.27;100.00;99455.34;5037233;28;20573;-80
2023/03/03 01:23:42;;;;;;;24.97;17.77;;;;;;;0.17;100.00;99452.00;5032975;28;20193;-78
2023/03/03 01:26:17;;;;;;;22.87;17.37;;;;;;;0.08;100.00;99451.13;5014801;28;20206;-80
2023/03/03 01:28:51;;;;;;;27.00;18.00;;;;;;;0.09;100.00;99444.88;5033574;28;20245;-79
2023/03/03 01:31:19;;;;;;;25.57;18.17;;;;;;;0.05;100.00;99450.63;5033808;28;20703;-79
2023/03/03 01:33:47;;;;;;;23.43;18.00;;;;;;;-0.01;100.00;99442.38;5035340;28;20280;-80
2023/03/03 01:36:14;;;;;;;23.93;17.70;;;;;;;0.03;100.00;99436.78;5031268;28;20540;-80
2023/03/03 01:38:42;;;;;;;25.07;18.27;;;;;;;-0.04;100.00;99444.47;5033783;28;20202;-79
2023/03/03 01:41:09;;;;;;;22.50;17.67;;;;;;;-0.05;100.00;99448.09;5033783;28;20204;-80
2023/03/03 01:43:45;;;;;;;24.33;17.53;;;;;;;-0.08;100.00;99437.88;5037282;28;20186;-79
2023/03/03 01:46:29;;;;;;;24.23;17.90;;;;;;;-0.06;100.00;99446.44;5024764;28;20309;-79
2023/03/03 01:49:09;;;;;;;24.23;18.07;;;;;;;-0.06;100.00;99439.38;5032675;28;20328;-80
2023/03/03 01:51:46;;;;;;;23.20;18.20;;;;;;;-0.09;100.00;99438.84;5036227;28;20204;-80
2023/03/03 01:54:26;;;;;;;24.70;17.50;;;;;;;-0.12;100.00;99437.34;5008838;28;20225;-79
2023/03/03 01:56:56;;;;;;;25.03;19.03;;;;;;;-0.08;100.00;99440.50;5039840;28;20272;-80
2023/03/03 01:59:30;;;;;;;24.60;17.90;;;;;;;-0.09;100.00;99431.75;5032663;28;20244;-80
2023/03/03 02:01:57;;;;;;;27.40;18.67;;;;;;;-0.06;100.00;99434.09;5032726;28;20229;-80
2023/03/03 02:04:25;;;;;;;26.20;18.33;;;;;;;-0.11;100.00;99435.56;5032742;28;20191;-80
2023/03/03 02:07:06;;;;;;;25.33;17.27;;;;;;;-0.08;100.00;99440.50;5035582;28;20230;-80
2023/03/03 02:09:54;;;;;;;25.67;17.30;;;;;;;-0.11;100.00;99446.09;5017926;28;20204;-80
2023/03/03 02:12:25;;;;;;;24.10;17.20;;;;;;;-0.15;100.00;99442.94;4992191;28;20243;-80
2023/03/03 02:14:55;;;;;;;23.40;17.63;;;;;;;-0.16;100.00;99437.81;4991680;28;20245;-80
2023/03/03 02:17:21;;;;;;;24.33;17.90;;;;;;;-0.19;100.00;99446.88;4992959;28;20214;-80
2023/03/03 02:20:22;;;;;;;25.33;18.63;;;;;;;-0.20;100.00;99444.38;4992028;28;20199;-82
2023/03/03 02:22:54;;;;;;;25.30;18.23;;;;;;;-0.21;100.00;99440.09;4992712;28;20191;-81
2023/03/03 02:25:32;;;;;;;23.80;17.83;;;;;;;-0.21;100.00;99440.09;4995328;28;20201;-80
2023/03/03 02:28:00;;;;;;;24.87;17.87;;;;;;;-0.30;100.00;99435.75;4995324;28;20664;-81
2023/03/03 02:30:28;;;;;;;23.03;17.60;;;;;;;-0.24;100.00;99435.97;4995541;28;20199;-80
2023/03/03 02:32:55;;;;;;;23.63;17.77;;;;;;;-0.31;100.00;99437.56;4995052;28;20248;-79
2023/03/03 02:35:26;;;;;;;25.90;17.90;;;;;;;-0.31;100.00;99442.00;4978915;28;20275;-79
2023/03/03 02:38:01;;;;;;;23.07;17.07;;;;;;;-0.16;100.00;99445.72;4995150;28;20266;-81
2023/03/03 02:40:32;;;;;;;23.60;17.47;;;;;;;-0.14;100.00;99449.03;4996275;28;20663;-80
2023/03/03 02:43:02;;;;;;;23.87;17.37;;;;;;;-0.29;100.00;99434.78;5000723;28;20888;-80
2023/03/03 02:45:30;;;;;;;26.73;17.97;;;;;;;-0.31;100.00;99444.63;4979759;28;20246;-79
2023/03/03 02:48:01;;;;;;;23.03;17.30;;;;;;;-0.23;100.00;99442.03;4981565;28;20203;-79
2023/03/03 02:50:28;;;;;;;24.97;17.60;;;;;;;-0.27;100.00;99436.28;4996131;28;20644;-81
2023/03/03 02:53:04;;;;;;;23.23;17.57;;;;;;;-0.18;100.00;99431.88;5000465;28;20199;-79
2023/03/03 02:55:35;;;;;;;23.67;17.03;;;;;;;-0.21;100.00;99426.94;4995409;28;20206;-80
2023/03/03 02:58:10;;;;;;;25.63;17.40;;;;;;;-0.20;100.00;99424.16;4998890;28;20238;-79
2023/03/03 03:00:42;;;;;;;27.57;18.07;;;;;;;-0.17;100.00;99421.19;4979632;28;20230;-80
2023/03/03 03:03:09;;;;;;;25.10;17.20;;;;;;;-0.13;100.00;99425.16;4994470;28;21062;-80
2023/03/03 03:05:42;;;;;;;26.97;17.30;;;;;;;-0.19;100.00;99423.19;4998523;28;20199;-81
2023/03/03 03:08:12;;;;;;;25.17;17.87;;;;;;;-0.15;100.00;99421.88;4979069;28;20199;-79
2023/03/03 03:10:42;;;;;;;25.50;18.43;;;;;;;-0.13;100.00;99419.91;5006065;28;20261;-80
2023/03/03 03:13:12;;;;;;;23.67;17.87;;;;;;;-0.13;100.00;99425.16;5018594;28;20186;-80
2023/03/03 03:15:46;;;;;;;28.00;18.23;;;;;;;-0.03;100.00;99427.69;5037827;28;20305;-79
2023/03/03 03:18:19;;;;;;;24.73;17.67;;;;;;;-0.03;100.00;99427.69;5046953;28;20254;-82
2023/03/03 03:20:50;;;;;;;27.10;17.47;;;;;;;-0.05;100.00;99427.03;5018459;28;20340;-79
2023/03/03 03:23:22;;;;;;;24.90;18.20;;;;;;;0.00;100.00;99432.66;5033495;28;20649;-81
2023/03/03 03:25:50;;;;;;;23.23;17.33;;;;;;;0.07;100.00;99430.22;5018343;28;20198;-80
2023/03/03 03:28:24;;;;;;;23.73;17.37;;;;;;;0.08;100.00;99430.06;5034375;28;20281;-80
2023/03/03 03:30:53;;;;;;;23.60;17.43;;;;;;;0.16;100.00;99426.63;5019562;28;20194;-79
2023/03/03 03:33:23;;;;;;;26.13;17.70;;;;;;;0.17;100.00;99428.28;5036125;28;20186;-80
2023/03/03 03:35:51;;;;;;;23.77;17.57;;;;;;;0.14;100.00;99434.69;5031425;28;20194;-81
2023/03/03 03:38:25;;;;;;;22.40;16.90;;;;;;;0.16;100.00;99438.00;5018030;28;20198;-78
2023/03/03 03:40:59;;;;;;;24.57;17.60;;;;;;;0.19;100.00;99432.41;5044613;28;20193;-79
2023/03/03 03:43:29;;;;;;;24.37;17.20;;;;;;;0.22;100.00;99440.00;5045002;28;20611;-79
2023/03/03 03:45:57;;;;;;;22.57;16.90;;;;;;;0.25;100.00;99431.78;5037869;28;20626;-81
2023/03/03 03:48:29;;;;;;;22.37;16.60;;;;;;;0.32;100.00;99432.81;5037670;28;20236;-81
2023/03/03 03:50:57;;;;;;;23.43;16.70;;;;;;;0.31;100.00;99420.59;5042097;28;20301;-81
2023/03/03 03:53:25;;;;;;;23.50;16.87;;;;;;;0.33;100.00;99417.78;5039752;28;20197;-79
2023/03/03 03:55:52;;;;;;;24.63;17.17;;;;;;;0.37;100.00;99424.41;5021367;28;20659;-80
2023/03/03 03:58:22;;;;;;;24.43;17.70;;;;;;;0.38;100.00;99418.97;5033337;28;20218;-80
2023/03/03 04:01:05;;;;;;;24.47;18.27;;;;;;;0.41;100.00;99409.94;5033689;28;20201;-80
2023/03/03 04:03:34;;;;;;;22.13;17.00;;;;;;;0.40;100.00;99408.28;5017836;28;20716;-79
2023/03/03 04:06:10;;;;;;;24.13;17.63;;;;;;;0.38;100.00;99403.16;5037747;28;20209;-80
2023/03/03 04:08:42;;;;;;;24.97;17.13;;;;;;;0.35;100.00;99402.66;5037633;28;20210;-79
2023/03/03 04:11:13;;;;;;;22.37;16.63;;;;;;;0.30;100.00;99404.94;5036389;28;20252;-80
2023/03/03 04:13:49;;;;;;;21.13;15.43;;;;;;;0.31;100.00;99407.44;5033181;28;20205;-80
2023/03/03 04:16:24;;;;;;;21.77;16.00;;;;;;;0.27;100.00;99408.75;5032041;28;20209;-81
2023/03/03 04:18:53;;;;;;;22.77;16.30;;;;;;;0.21;100.00;99409.38;5032880;28;20218;-79
2023/03/03 04:21:20;;;;;;;23.03;16.00;;;;;;;0.18;100.00;99419.41;5016729;28;20199;-79
2023/03/03 04:23:52;;;;;;;22.27;16.43;;;;;;;0.14;100.00;99424.13;5032683;28;20252;-80
2023/03/03 04:26:21;;;;;;;21.97;15.93;;;;;;;0.11;100.00;99428.91;5034328;28;20186;-78
2023/03/03 04:28:48;;;;;;;22.83;19.07;;;;;;;0.06;100.00;99415.38;5033973;28;20273;-81
2023/03/03 04:31:16;;;;;;;24.57;18.00;;;;;;;-0.05;100.00;99421.78;5016644;28;20569;-80
2023/03/03 04:33:45;;;;;;;25.93;17.60;;;;;;;-0.13;100.00;99421.69;5032319;28;20178;-81
2023/03/03 04:36:15;;;;;;;22.43;17.10;;;;;;;-0.18;100.00;99427.44;5012119;28;20198;-79
2023/03/03 04:38:42;;;;;;;20.47;16.10;;;;;;;-0.21;100.00;99432.19;5031880;28;20314;-80
2023/03/03 04:41:12;;;;;;;22.43;16.37;;;;;;;-0.16;100.00;99433.38;5032440;28;20267;-79
2023/03/03 04:43:39;;;;;;;23.50;15.40;;;;;;;-0.22;100.00;99430.53;5016025;28;20256;-80
2023/03/03 04:46:08;;;;;;;21.63;15.47;;;;;;;-0.40;100.00;99427.97;5003728;28;20194;-79
2023/03/03 04:48:37;;;;;;;19.87;15.50;;;;;;;-0.47;100.00;99422.47;5016399;28;20198;-79
2023/03/03 04:51:07;;;;;;;23.30;16.07;;;;;;;-0.58;100.00;99433.28;5030834;28;20203;-81
2023/03/03 04:53:38;;;;;;;21.47;15.73;;;;;;;-0.59;100.00;99428.16;5001460;28;20202;-79
2023/03/03 04:56:07;;;;;;;22.60;16.23;;;;;;;-0.63;100.00;99434.72;5034840;28;20689;-81
2023/03/03 04:58:36;;;;;;;21.57;15.80;;;;;;;-0.63;100.00;99429.44;5019974;28;20230;-81
2023/03/03 05:01:03;;;;;;;21.63;16.13;;;;;;;-0.70;100.00;99429.22;5022653;28;20204;-80
2023/03/03 05:03:35;;;;;;;22.67;15.80;;;;;;;-0.70;100.00;99434.47;5039128;28;20218;-78
2023/03/03 05:06:08;;;;;;;21.63;15.70;;;;;;;-0.73;100.00;99434.81;5037461;28;20213;-79
2023/03/03 05:08:34;;;;;;;20.97;15.70;;;;;;;-0.73;100.00;99441.88;5034904;28;20269;-80
2023/03/03 05:11:02;;;;;;;21.77;15.63;;;;;;;-0.86;100.00;99439.63;5035833;28;20234;-80
2023/03/03 05:13:30;;;;;;;19.67;15.23;;;;;;;-0.81;100.00;99450.53;5034628;28;20191;-78
2023/03/03 05:15:57;;;;;;;22.90;16.03;;;;;;;-0.89;100.00;99438.13;5035097;28;20675;-79
2023/03/03 05:18:25;;;;;;;22.70;16.10;;;;;;;-0.85;100.00;99435.19;5018073;28;20222;-80
2023/03/03 05:20:52;;;;;;;23.63;16.80;;;;;;;-0.85;100.00;99437.84;5039838;28;20689;-80
2023/03/03 05:23:21;;;;;;;22.37;16.33;;;;;;;-0.86;100.00;99438.81;5047494;28;20281;-81
2023/03/03 05:25:49;;;;;;;21.00;16.37;;;;;;;-0.87;100.00;99437.97;5017723;28;20192;-80
2023/03/03 05:28:18;;;;;;;20.57;15.33;;;;;;;-0.90;100.00;99433.03;5018046;28;20194;-80
2023/03/03 05:30:51;;;;;;;23.47;16.90;;;;;;;-0.92;100.00;99443.69;5010402;28;20230;-81
2023/03/03 05:33:19;;;;;;;24.40;17.47;;;;;;;-1.01;100.00;99454.28;5015515;28;20210;-81
2023/03/03 05:35:46;;;;;;;24.03;17.63;;;;;;;-1.05;100.00;99450.31;5032696;28;20186;-80
2023/03/03 05:38:12;;;;;;;23.90;16.87;;;;;;;-1.06;100.00;99461.78;4998940;28;20300;-79
2023/03/03 05:40:43;;;;;;;23.27;16.23;;;;;;;-1.03;100.00;99462.34;5032724;28;20190;-80
2023/03/03 05:43:14;;;;;;;21.10;16.10;;;;;;;-0.88;100.00;99465.25;5032520;28;20187;-79
2023/03/03 05:45:56;;;;;;;22.93;15.90;;;;;;;-1.03;100.00;99464.97;5033041;28;20194;-79
2023/03/03 05:48:23;;;;;;;22.37;16.03;;;;;;;-0.96;100.00;99468.63;5014854;28;20269;-81
2023/03/03 05:50:51;;;;;;;22.67;16.60;;;;;;;-0.89;100.00;99456.53;5031224;28;20821;-80
2023/03/03 05:53:19;;;;;;;26.60;17.77;;;;;;;-0.84;100.00;99463.16;5037186;28;20256;-79
2023/03/03 05:55:48;;;;;;;48.33;29.20;;;;;;;-0.80;100.00;99465.34;5033905;28;20201;-80
2023/03/03 05:58:17;;;;;;;33.57;23.50;;;;;;;-0.72;100.00;99460.13;5033801;28;20205;-80
2023/03/03 06:00:45;;;;;;;26.87;18.33;;;;;;;-0.80;100.00;99472.41;5016247;28;20217;-81
2023/03/03 06:03:17;;;;;;;22.63;17.57;;;;;;;-0.70;100.00;99475.78;5037593;28;20304;-80
2023/03/03 06:05:44;;;;;;;23.53;16.37;;;;;;;-0.55;100.00;99482.13;5017224;28;20663;-80
2023/03/03 06:08:13;;;;;;;23.33;15.97;;;;;;;-0.52;100.00;99489.75;5034837;28;20205;-79
2023/03/03 06:10:40;;;;;;;22.00;16.00;;;;;;;-0.54;100.00;99495.16;5031695;28;20257;-80
2023/03/03 06:13:09;;;;;;;21.03;15.53;;;;;;;-0.34;100.00;99487.06;5000532;28;20252;-80
2023/03/03 06:15:36;;;;;;;21.23;15.83;;;;;;;-0.21;100.00;99492.75;5031275;28;20190;-81
2023/03/03 06:18:04;;;;;;;22.03;15.17;;;;;;;-0.08;100.00;99495.81;5032705;28;20206;-80
2023/03/03 06:20:34;;;;;;;24.27;16.20;;;;;;;0.03;100.00;99492.09;5028530;28;20232;-80
2023/03/03 06:23:01;;;;;;;22.17;16.90;;;;;;;0.16;100.00;99495.13;5030418;28;20281;-79
2023/03/03 06:25:27;;;;;;;22.23;17.23;;;;;;;0.32;100.00;99500.50;5030415;28;20200;-79
2023/03/03 06:27:57;;;;;;;25.17;18.30;;;;;;;0.46;100.00;99507.81;5012141;28;20690;-83
2023/03/03 06:30:25;;;;;;;23.43;16.93;;;;;;;0.62;100.00;99513.13;5033399;28;20193;-79
2023/03/03 06:32:53;;;;;;;25.47;16.93;;;;;;;0.78;100.00;99505.28;5017449;28;20183;-79
2023/03/03 06:35:22;;;;;;;22.13;16.90;;;;;;;0.94;100.00;99507.13;5033275;28;20174;-80
2023/03/03 06:37:49;;;;;;;25.00;17.70;;;;;;;1.07;100.00;99502.25;5034300;28;20240;-82
2023/03/03 06:40:19;;;;;;;23.17;16.60;;;;;;;1.30;100.00;99511.19;5018019;28;20213;-79
2023/03/03 06:42:47;;;;;;;22.30;16.90;;;;;;;1.44;100.00;99496.50;5034435;28;20187;-80
2023/03/03 06:45:15;;;;;;;26.47;20.23;;;;;;;1.62;100.00;99504.25;5032872;28;20190;-78
2023/03/03 06:47:41;;;;;;;25.23;19.53;;;;;;;1.80;100.00;99510.19;5033012;28;20190;-80
2023/03/03 06:50:11;;;;;;;23.80;18.23;;;;;;;1.96;100.00;99514.63;5034632;28;20197;-79
2023/03/03 06:52:39;;;;;;;26.00;18.67;;;;;;;2.12;100.00;99518.06;5033633;28;20201;-78
2023/03/03 06:55:27;;;;;;;27.07;19.20;;;;;;;2.31;100.00;99526.63;5034540;28;20190;-84
2023/03/03 06:57:57;;;;;;;32.00;23.70;;;;;;;2.48;100.00;99529.03;5031747;28;20199;-79
2023/03/03 07:00:31;;;;;;;33.83;24.40;;;;;;;2.64;100.00;99533.47;5029703;28;20202;-79
2023/03/03 07:03:07;;;;;;;33.70;24.70;;;;;;;2.80;100.00;99529.94;5033748;28;20295;-82
2023/03/03 07:05:34;;;;;;;33.47;24.70;;;;;;;3.01;100.00;99530.16;5016045;28;20201;-81
2023/03/03 07:08:09;;;;;;;31.77;23.30;;;;;;;3.22;100.00;99518.94;5030116;28;20193;-81
2023/03/03 07:10:38;;;;;;;38.90;24.73;;;;;;;3.34;100.00;99528.97;5018401;28;20233;-80
2023/03/03 07:13:18;;;;;;;41.00;26.07;;;;;;;3.45;100.00;99536.47;5035571;28;20190;-80
2023/03/03 07:15:47;;;;;;;35.13;24.53;;;;;;;3.59;100.00;99528.78;5033168;28;20705;-80
2023/03/03 07:18:34;;;;;;;40.17;26.67;;;;;;;3.67;100.00;99523.41;5041585;28;20189;-81
2023/03/03 07:21:25;;;;;;;34.97;25.47;;;;;;;3.76;100.00;99531.13;5017271;28;20205;-81
2023/03/03 07:23:52;;;;;;;34.10;24.73;;;;;;;3.91;100.00;99539.94;5016411;28;20186;-80
2023/03/03 07:26:24;;;;;;;34.63;24.83;;;;;;;3.98;100.00;99534.75;5017670;28;20190;-81
2023/03/03 07:28:57;;;;;;;35.40;24.87;;;;;;;4.12;100.00;99535.78;5033723;28;20191;-81
2023/03/03 07:31:39;;;;;;;36.27;25.73;;;;;;;4.19;100.00;99536.72;5034080;28;20198;-80
2023/03/03 07:34:23;;;;;;;34.77;24.83;;;;;;;4.29;100.00;99542.59;5034007;28;20224;-79
2023/03/03 07:36:53;;;;;;;33.00;22.90;;;;;;;4.08;100.00;99540.63;5030848;28;20222;-80
2023/03/03 07:39:28;;;;;;;33.13;24.03;;;;;;;4.04;100.00;99544.63;5034922;28;20206;-80
2023/03/03 07:42:20;;;;;;;33.00;23.03;;;;;;;4.22;100.00;99544.28;5035485;28;20221;-81
2023/03/03 07:44:58;;;;;;;30.83;23.73;;;;;;;4.17;100.00;99551.97;5051212;28;20298;-80
2023/03/03 07:47:35;;;;;;;31.73;23.63;;;;;;;4.33;100.00;99547.34;5027756;28;20217;-79
2023/03/03 07:50:18;;;;;;;34.20;24.50;;;;;;;4.35;100.00;99542.66;5026413;28;20193;-80
2023/03/03 07:52:55;;;;;;;31.60;23.33;;;;;;;4.51;100.00;99546.16;5029904;28;20206;-78
2023/03/03 07:55:28;;;;;;;30.77;23.40;;;;;;;4.36;100.00;99544.31;5036433;28;20197;-80
2023/03/03 07:58:13;;;;;;;31.60;24.03;;;;;;;4.49;100.00;99546.31;5036360;28;20190;-80
2023/03/03 08:01:17;;;;;;;29.73;22.57;;;;;;;4.61;100.00;99552.00;5037393;28;20702;-79
2023/03/03 08:03:45;;;;;;;32.97;24.00;;;;;;;4.63;100.00;99555.28;5034399;28;20194;-80
2023/03/03 08:06:31;;;;;;;34.60;24.50;;;;;;;4.76;100.00;99556.28;5033378;28;20194;-82
2023/03/03 08:09:10;;;;;;;31.63;23.13;;;;;;;4.93;100.00;99559.59;5000875;28;20202;-79
2023/03/03 08:12:08;;;;;;;37.07;24.10;;;;;;;5.15;100.00;99552.50;5033707;28;20709;-79
2023/03/03 08:14:37;;;;;;;32.20;23.03;;;;;;;5.28;100.00;99564.09;5017260;28;20290;-80
2023/03/03 08:17:34;;;;;;;35.67;26.83;;;;;;;5.37;99.10;99558.66;5018820;28;20190;-79
2023/03/03 08:20:01;;;;;;;32.33;25.23;;;;;;;5.20;99.89;99568.69;5030108;28;20230;-82
2023/03/03 08:22:35;;;;;;;33.57;24.90;;;;;;;5.02;100.00;99561.13;5011198;28;20205;-81
2023/03/03 08:25:21;;;;;;;33.30;25.50;;;;;;;5.09;100.00;99574.47;5030261;28;20627;-83
2023/03/03 08:27:55;;;;;;;40.77;25.87;;;;;;;5.44;100.00;99568.38;5032416;28;20634;-79
2023/03/03 08:30:22;;;;;;;34.50;25.07;;;;;;;5.65;100.00;99575.50;5031983;28;20209;-79
2023/03/03 08:32:48;;;;;;;35.57;26.73;;;;;;;5.83;100.00;99570.59;5031470;28;20225;-81
2023/03/03 08:35:18;;;;;;;36.17;26.27;;;;;;;5.76;99.60;99573.19;5034996;28;20190;-79
2023/03/03 08:37:47;;;;;;;36.30;26.60;;;;;;;5.91;100.00;99569.69;5037717;28;20276;-79
2023/03/03 08:40:15;;;;;;;35.87;26.57;;;;;;;6.06;100.00;99570.44;5033071;28;20214;-79
2023/03/03 08:42:44;;;;;;;36.17;26.87;;;;;;;6.34;99.23;99554.47;5038014;28;20194;-80
2023/03/03 08:45:14;;;;;;;39.87;27.87;;;;;;;6.50;98.70;99554.16;5012713;28;20195;-80
2023/03/03 08:47:44;;;;;;;40.73;29.93;;;;;;;6.41;98.41;99560.66;5030297;28;20197;-80
2023/03/03 08:50:12;;;;;;;40.00;28.67;;;;;;;6.57;98.32;99550.53;5037548;28;20210;-79
2023/03/03 08:52:40;;;;;;;40.40;30.37;;;;;;;6.85;96.61;99553.16;5010970;28;20201;-81
2023/03/03 08:55:07;;;;;;;41.50;31.20;;;;;;;7.01;95.61;99552.81;5012363;28;20190;-79
2023/03/03 08:57:34;;;;;;;39.00;30.43;;;;;;;7.00;93.33;99553.00;5031878;28;20218;-79
2023/03/03 09:00:06;;;;;;;39.27;30.83;;;;;;;6.97;93.18;99542.75;5033071;28;20309;-78
2023/03/03 09:02:38;;;;;;;41.67;30.83;;;;;;;7.25;94.33;99548.81;5031172;28;20271;-81
2023/03/03 09:05:08;;;;;;;46.33;32.87;;;;;;;7.48;92.86;99541.28;5029698;28;20213;-79
2023/03/03 09:07:41;;;;;;;45.13;32.93;;;;;;;7.40;89.03;99545.97;5028492;28;20194;-79
2023/03/03 09:10:12;;;;;;;46.20;33.07;;;;;;;7.69;88.54;99544.81;5015010;28;20230;-79
2023/03/03 09:12:41;;;;;;;43.67;33.33;;;;;;;7.62;87.38;99555.47;5029262;28;20194;-79
2023/03/03 09:15:30;;;;;;;45.30;33.63;;;;;;;7.81;86.87;99552.00;5012373;28;20202;-80
2023/03/03 09:18:12;;;;;;;47.27;33.17;;;;;;;7.94;85.69;99551.19;5032791;28;20217;-79
2023/03/03 09:20:41;;;;;;;44.80;33.37;;;;;;;7.75;83.82;99546.66;5025256;28;20260;-79
2023/03/03 09:23:37;;;;;;;45.07;32.80;;;;;;;7.91;84.94;99552.44;5030765;28;20233;-79
2023/03/03 09:26:17;;;;;;;40.17;31.37;;;;;;;7.98;83.44;99555.09;5011950;28;20194;-82
2023/03/03 09:28:48;;;;;;;40.87;30.50;;;;;;;8.30;82.85;99559.66;5042458;28;20202;-80
2023/03/03 09:31:27;;;;;;;41.63;31.57;;;;;;;8.35;81.38;99556.38;5030612;28;20186;-82
2023/03/03 09:33:56;;;;;;;38.17;29.57;;;;;;;8.51;80.67;99557.75;5029203;28;20264;-78
2023/03/03 09:36:26;;;;;;;39.70;29.93;;;;;;;8.34;78.78;99558.22;5030302;28;20196;-79
2023/03/03 09:38:58;;;;;;;37.03;29.40;;;;;;;8.27;78.66;99554.69;5031265;28;20732;-80
2023/03/03 09:42:02;;;;;;;39.43;28.37;;;;;;;8.75;79.36;99560.59;5032442;28;20686;-79
2023/03/03 09:45:07;;;;;;;37.57;28.40;;;;;;;8.69;77.82;99561.44;5031321;28;20198;-78
2023/03/03 09:47:52;;;;;;;38.27;28.70;;;;;;;8.90;77.95;99568.38;5034898;28;20200;-78
2023/03/03 09:50:33;;;;;;;37.10;27.97;;;;;;;9.11;75.93;99565.41;5040994;28;20197;-78
2023/03/03 09:53:32;;;;;;;33.90;26.70;;;;;;;9.08;74.51;99560.50;5041123;28;20201;-79
2023/03/03 09:56:41;;;;;;;38.60;27.80;;;;;;;9.14;74.92;99566.84;5038693;28;20205;-78
2023/03/03 09:59:21;;;;;;;39.93;28.80;;;;;;;9.02;73.83;99568.53;5004539;28;20198;-78
2023/03/03 10:02:07;;;;;;;38.87;28.30;;;;;;;9.24;74.97;99561.84;5030360;28;20225;-78
2023/03/03 10:04:56;;;;;;;35.40;26.67;;;;;;;9.55;73.68;99569.94;5018679;28;20247;-78
2023/03/03 10:07:42;;;;;;;37.10;27.67;;;;;;;9.50;71.89;99563.59;5030639;28;20209;-82
2023/03/03 10:10:17;;;;;;;35.80;26.30;;;;;;;9.38;71.71;99566.09;5032049;28;20249;-77
2023/03/03 10:13:13;;;;;;;37.53;27.30;;;;;;;9.41;72.25;99562.19;5032343;28;20209;-78
2023/03/03 10:16:00;;;;;;;32.87;25.37;;;;;;;9.57;69.64;99572.38;5000065;28;20678;-79
2023/03/03 10:19:02;;;;;;;32.03;25.03;;;;;;;9.26;70.05;99554.44;5034028;28;20205;-79
2023/03/03 10:21:41;;;;;;;36.43;25.37;;;;;;;9.33;68.91;99560.59;4997993;28;20210;-80
2023/03/03 10:24:30;;;;;;;32.80;25.07;;;;;;;9.53;69.06;99555.94;5032274;28;20285;-79
2023/03/03 10:26:57;;;;;;;36.80;26.43;;;;;;;9.61;68.66;99555.69;5026357;28;20222;-79
2023/03/03 10:29:53;;;;;;;36.63;25.83;;;;;;;9.77;68.73;99553.53;5032085;28;20678;-79
2023/03/03 10:32:34;;;;;;;34.40;26.93;;;;;;;9.70;67.94;99564.31;5034215;28;20646;-78
2023/03/03 10:35:28;;;;;;;34.40;25.90;;;;;;;9.31;68.71;99567.19;5026785;28;20198;-80
2023/03/03 10:38:31;;;;;;;36.57;25.43;;;;;;;9.47;68.33;99569.38;5015445;28;20646;-78
2023/03/03 10:41:24;;;;;;;31.80;24.67;;;;;;;9.77;67.41;99562.41;5017681;28;20237;-80
2023/03/03 10:44:15;;;;;;;36.27;26.20;;;;;;;9.89;67.34;99557.19;5039078;28;20253;-79
2023/03/03 10:47:10;;;;;;;35.97;25.47;;;;;;;9.97;66.15;99562.25;5024868;28;20210;-79
2023/03/03 10:49:56;;;;;;;34.33;25.50;;;;;;;10.05;66.20;99553.97;5038961;28;20655;-81
2023/03/03 10:52:30;;;;;;;30.20;24.43;;;;;;;10.14;65.40;99544.63;5043075;28;20264;-79
2023/03/03 10:55:12;;;;;;;31.83;25.10;;;;;;;10.29;65.56;99533.59;5043652;28;20713;-81
2023/03/03 10:58:00;;;;;;;33.13;24.20;;;;;;;10.27;64.21;99531.13;5041283;28;20251;-80
2023/03/03 11:00:38;;;;;;;29.03;23.67;;;;;;;10.21;63.68;99524.00;5043645;28;20209;-79
2023/03/03 11:03:40;;;;;;;32.73;24.70;;;;;;;10.10;63.29;99522.81;5033902;28;20685;-80
2023/03/03 11:06:32;;;;;;;31.93;24.83;;;;;;;10.07;63.06;99512.56;5034753;28;20719;-81
2023/03/03 11:09:07;;;;;;;31.07;24.40;;;;;;;9.98;64.06;99507.72;5031814;28;20300;-78
2023/03/03 11:11:43;;;;;;;34.03;24.90;;;;;;;10.11;63.36;99499.56;5018825;28;20265;-79
2023/03/03 11:14:23;;;;;;;34.07;24.37;;;;;;;10.35;63.77;99492.56;5034047;28;20277;-79
2023/03/03 11:17:02;;;;;;;31.53;24.23;;;;;;;10.25;63.40;99493.06;5028924;28;20194;-81
2023/03/03 11:19:57;;;;;;;32.27;24.00;;;;;;;10.53;63.04;99490.72;5032328;28;20325;-78
2023/03/03 11:22:28;;;;;;;29.90;23.57;;;;;;;10.68;61.82;99495.72;5016926;28;20198;-81
2023/03/03 11:25:13;;;;;;;31.23;23.60;;;;;;;10.69;61.88;99491.16;5017131;28;20248;-80
2023/03/03 11:28:02;;;;;;;30.10;23.43;;;;;;;11.02;61.91;99487.03;5035269;28;20252;-79
2023/03/03 11:31:06;;;;;;;29.70;22.67;;;;;;;11.05;60.75;99488.47;5033686;28;20206;-79
2023/03/03 11:33:44;;;;;;;29.17;21.93;;;;;;;11.19;60.85;99491.78;5021441;28;20280;-78
2023/03/03 11:36:24;;;;;;;25.67;20.67;;;;;;;11.19;60.00;99494.47;5037369;28;20190;-82
2023/03/03 11:39:13;;;;;;;26.80;20.70;;;;;;;11.52;59.21;99483.28;5016340;28;20666;-78
2023/03/03 11:41:59;;;;;;;24.50;19.27;;;;;;;11.63;57.71;99482.47;5016388;28;20301;-80
2023/03/03 11:45:02;;;;;;;26.13;19.70;;;;;;;11.25;59.19;99474.78;5034746;28;20186;-79
2023/03/03 11:47:54;;;;;;;28.80;21.80;;;;;;;11.60;59.46;99470.34;5005940;28;20224;-79
2023/03/03 11:50:31;;;;;;;25.37;20.27;;;;;;;11.67;59.06;99462.19;5030927;28;20201;-79
2023/03/03 11:53:21;;;;;;;21.73;18.17;;;;;;;11.68;58.00;99463.81;5032599;28;20209;-79